Time;durP1;ratioP1;P1;durP2;ratioP2;P2;SDS_P1;SDS_P2;PMS_P1;PMS_P2;Temp;Humidity;BMP_temperature;BMP_pressure;BME280_temperature;BME280_humidity;BME280_pressure;Samples;Min_cycle;Max_cycle;Signal;HPM_P1;HPM_P2
2021/12/11 00:01:19;;;;;;;;;;;4.20;79.30;;;;;;5014641;28;19945;-67
2021/12/11 00:03:50;;;;;;;;;;;4.10;79.90;;;;;;5014860;28;19945;-67
2021/12/11 00:06:21;;;;;;;;;;;4.20;79.30;;;;;;5014552;28;20390;-67
2021/12/11 00:08:48;;;;;;;;;;;4.20;79.10;;;;;;5014706;28;20047;-67
2021/12/11 00:11:23;;;;;;;;;;;4.10;79.20;;;;;;5014223;28;19979;-67
2021/12/11 00:13:51;;;;;;;;;;;4.10;79.10;;;;;;5014412;28;20001;-67
2021/12/11 00:16:18;;;;;;;;;;;4.00;79.40;;;;;;5014363;28;19969;-67
2021/12/11 00:18:44;;;;;;;;;;;4.00;79.30;;;;;;5014344;28;19948;-67
2021/12/11 00:21:12;;;;;;;;;;;4.00;79.00;;;;;;5014149;28;20383;-67
2021/12/11 00:23:52;;;;;;;;;;;4.00;79.00;;;;;;5014300;28;19976;-67
2021/12/11 00:26:25;;;;;;;;;;;4.00;79.00;;;;;;5014130;28;19949;-67
2021/12/11 00:28:51;;;;;;;;;;;4.00;79.20;;;;;;5014192;28;19944;-67
2021/12/11 00:31:17;;;;;;;;;;;3.90;79.70;;;;;;5014090;28;19951;-67
2021/12/11 00:33:43;;;;;;;;;;;3.90;80.20;;;;;;5014076;28;20031;-67
2021/12/11 00:36:11;;;;;;;;;;;3.80;80.50;;;;;;5014028;28;20360;-67
2021/12/11 00:38:37;;;;;;;;;;;3.80;81.10;;;;;;5014003;28;19946;-67
2021/12/11 00:41:04;;;;;;;;;;;3.70;81.70;;;;;;5013970;28;20397;-67
2021/12/11 00:43:34;;;;;;;;;;;3.70;82.10;;;;;;5013938;28;19952;-67
2021/12/11 00:46:00;;;;;;;;;;;3.60;82.30;;;;;;5012738;28;19944;-67
2021/12/11 00:48:26;;;;;;;;;;;3.50;82.60;;;;;;5013899;28;19991;-67
2021/12/11 00:50:57;;;;;;;;;;;3.50;82.50;;;;;;5013833;28;19953;-67
2021/12/11 00:53:25;;;;;;;;;;;3.50;82.10;;;;;;5013689;28;19964;-67
2021/12/11 00:55:52;;;;;;;;;;;3.50;81.10;;;;;;5013728;28;19937;-67
2021/12/11 00:58:20;;;;;;;;;;;3.70;79.10;;;;;;5013232;28;20307;-67
2021/12/11 01:00:46;;;;;;;;;;;3.70;79.20;;;;;;5013688;28;19986;-67
2021/12/11 01:03:13;;;;;;;;;;;3.70;79.20;;;;;;5013599;28;20356;-67
2021/12/11 01:05:41;;;;;;;;;;;3.80;78.00;;;;;;5013593;28;19993;-67
2021/12/11 01:08:15;;;;;;;;;;;3.80;77.20;;;;;;5013469;28;19946;-67
2021/12/11 01:10:40;;;;;;;;;;;3.90;77.00;;;;;;5013375;28;20005;-67
2021/12/11 01:13:06;;;;;;;;;;;3.90;77.00;;;;;;5013440;28;20355;-67
2021/12/11 01:15:37;;;;;;;;;;;3.90;76.70;;;;;;5013444;28;19945;-67
2021/12/11 01:18:22;;;;;;;;;;;3.90;76.60;;;;;;5013453;28;20004;-67
2021/12/11 01:21:05;;;;;;;;;;;3.90;76.30;;;;;;5013376;28;19945;-67
2021/12/11 01:26:00;;;;;;;;;;;4.00;75.40;;;;;;5013557;28;19937;-67
2021/12/11 01:28:26;;;;;;;;;;;4.10;75.10;;;;;;5013315;28;20042;-67
2021/12/11 01:30:52;;;;;;;;;;;4.20;74.80;;;;;;5013316;28;19951;-67
2021/12/11 01:33:18;;;;;;;;;;;4.20;74.80;;;;;;5013239;28;20039;-67
2021/12/11 01:35:44;;;;;;;;;;;4.20;74.40;;;;;;5013282;28;20398;-67
2021/12/11 01:38:15;;;;;;;;;;;4.30;74.50;;;;;;5013832;28;19942;-67
2021/12/11 01:40:42;;;;;;;;;;;4.20;74.50;;;;;;5013184;28;20396;-67
2021/12/11 01:43:08;;;;;;;;;;;4.20;74.60;;;;;;5013214;28;19939;-67
2021/12/11 01:45:35;;;;;;;;;;;4.20;74.70;;;;;;5013214;28;19947;-67
2021/12/11 01:48:01;;;;;;;;;;;4.20;74.80;;;;;;5013122;28;19937;-67
2021/12/11 01:50:29;;;;;;;;;;;4.20;74.90;;;;;;5013186;28;19946;-67
2021/12/11 01:53:00;;;;;;;;;;;4.20;74.80;;;;;;5028168;28;20416;-67
2021/12/11 01:55:35;;;;;;;;;;;4.20;74.70;;;;;;5013113;28;19945;-67
2021/12/11 01:58:01;;;;;;;;;;;4.20;74.90;;;;;;5013043;28;20501;-67
2021/12/11 02:00:30;;;;;;;;;;;4.20;74.90;;;;;;5013042;28;19990;-67
2021/12/11 02:02:56;;;;;;;;;;;4.20;74.60;;;;;;5013015;28;19941;-67
2021/12/11 02:05:24;;;;;;;;;;;4.10;74.70;;;;;;5013303;28;19946;-67
2021/12/11 02:07:51;;;;;;;;;;;4.10;74.70;;;;;;5028156;28;19951;-67
2021/12/11 02:10:19;;;;;;;;;;;4.10;74.50;;;;;;5013830;28;19988;-67
2021/12/11 02:12:45;;;;;;;;;;;4.10;74.20;;;;;;5016600;28;19966;-67
2021/12/11 02:15:24;;;;;;;;;;;4.20;73.90;;;;;;5016615;28;20049;-66
2021/12/11 02:17:52;;;;;;;;;;;4.20;73.80;;;;;;5016563;28;20031;-67
2021/12/11 02:20:27;;;;;;;;;;;4.20;74.00;;;;;;5016869;28;19951;-67
2021/12/11 02:22:52;;;;;;;;;;;4.20;74.30;;;;;;5016546;28;20051;-67
2021/12/11 02:25:30;;;;;;;;;;;4.20;74.60;;;;;;5016415;28;20381;-67
2021/12/11 02:27:59;;;;;;;;;;;4.20;74.60;;;;;;5015115;28;19946;-67
2021/12/11 02:30:29;;;;;;;;;;;4.20;74.70;;;;;;5016416;28;19949;-67
2021/12/11 02:32:54;;;;;;;;;;;4.20;74.70;;;;;;5016320;28;19989;-67
2021/12/11 02:35:23;;;;;;;;;;;4.20;74.80;;;;;;5016285;28;19944;-67
2021/12/11 02:37:52;;;;;;;;;;;4.20;75.70;;;;;;5016254;28;19948;-67
2021/12/11 02:40:21;;;;;;;;;;;4.10;77.10;;;;;;5016157;28;19943;-67
2021/12/11 02:42:50;;;;;;;;;;;4.00;76.70;;;;;;5016147;28;19939;-67
2021/12/11 02:45:20;;;;;;;;;;;3.90;77.40;;;;;;5016085;28;19946;-67
2021/12/11 02:47:50;;;;;;;;;;;3.80;77.60;;;;;;5016105;28;19937;-67
2021/12/11 02:50:16;;;;;;;;;;;3.80;77.10;;;;;;5031264;28;19951;-67
2021/12/11 02:52:49;;;;;;;;;;;3.90;76.50;;;;;;5015878;28;19988;-67
2021/12/11 02:55:18;;;;;;;;;;;4.00;76.10;;;;;;5015973;28;19946;-66
2021/12/11 02:57:47;;;;;;;;;;;4.00;76.20;;;;;;5015880;28;19945;-67
2021/12/11 03:00:18;;;;;;;;;;;4.00;76.40;;;;;;5015801;28;20417;-67
2021/12/11 03:02:48;;;;;;;;;;;3.90;76.30;;;;;;5015749;28;20388;-67
2021/12/11 03:05:16;;;;;;;;;;;3.80;76.60;;;;;;5015716;28;19946;-67
2021/12/11 03:07:49;;;;;;;;;;;3.80;76.70;;;;;;5015973;28;19954;-66
2021/12/11 03:10:16;;;;;;;;;;;3.70;77.00;;;;;;5015392;28;19973;-67
2021/12/11 03:12:44;;;;;;;;;;;3.60;77.10;;;;;;5015535;28;20030;-67
2021/12/11 03:15:10;;;;;;;;;;;3.60;77.40;;;;;;5015572;28;20417;-67
2021/12/11 03:17:36;;;;;;;;;;;3.50;77.90;;;;;;5015491;28;19941;-67
2021/12/11 03:20:03;;;;;;;;;;;3.50;78.20;;;;;;5015464;28;19945;-67
2021/12/11 03:22:31;;;;;;;;;;;3.50;78.10;;;;;;5015238;28;19950;-67
2021/12/11 03:24:58;;;;;;;;;;;3.50;78.10;;;;;;5015346;28;19938;-67
2021/12/11 03:27:24;;;;;;;;;;;3.40;78.20;;;;;;5015223;28;20416;-67
2021/12/11 03:29:50;;;;;;;;;;;3.40;78.50;;;;;;5015280;28;19945;-67
2021/12/11 03:32:15;;;;;;;;;;;3.40;78.80;;;;;;5015126;28;20323;-67
2021/12/11 03:34:41;;;;;;;;;;;3.30;79.20;;;;;;5015188;28;19945;-67
2021/12/11 03:37:08;;;;;;;;;;;3.30;79.60;;;;;;5015216;28;19936;-67
2021/12/11 03:39:40;;;;;;;;;;;3.20;79.80;;;;;;5015082;28;20042;-67
2021/12/11 03:42:10;;;;;;;;;;;3.20;80.20;;;;;;5015339;28;20013;-67
2021/12/11 03:44:36;;;;;;;;;;;3.10;80.60;;;;;;5013699;28;20044;-67
2021/12/11 03:47:06;;;;;;;;;;;3.10;81.10;;;;;;5014899;28;20140;-66
2021/12/11 03:49:31;;;;;;;;;;;3.00;81.50;;;;;;5014925;28;19986;-67
2021/12/11 03:51:57;;;;;;;;;;;2.90;81.90;;;;;;5014819;28;20046;-67
2021/12/11 03:54:26;;;;;;;;;;;2.90;82.10;;;;;;5014771;28;19944;-67
2021/12/11 03:56:52;;;;;;;;;;;2.90;82.30;;;;;;5014744;28;19967;-67
2021/12/11 03:59:18;;;;;;;;;;;2.90;82.50;;;;;;5014668;28;20399;-67
2021/12/11 04:01:46;;;;;;;;;;;2.90;82.60;;;;;;5014649;28;19946;-67
2021/12/11 04:04:34;;;;;;;;;;;2.90;82.70;;;;;;5029855;28;19950;-67
2021/12/11 04:07:00;;;;;;;;;;;2.90;82.80;;;;;;5014606;28;19946;-67
2021/12/11 04:09:26;;;;;;;;;;;2.80;83.10;;;;;;5014472;28;19980;-67
2021/12/11 04:11:52;;;;;;;;;;;2.80;83.30;;;;;;5029488;28;19987;-66
2021/12/11 04:14:20;;;;;;;;;;;2.70;83.30;;;;;;5014484;28;20473;-66
2021/12/11 04:16:46;;;;;;;;;;;2.60;83.20;;;;;;5014440;28;20405;-66
2021/12/11 04:19:12;;;;;;;;;;;2.50;83.50;;;;;;5014367;28;19948;-66
2021/12/11 04:21:38;;;;;;;;;;;2.50;83.70;;;;;;5014358;28;20424;-66
2021/12/11 04:24:05;;;;;;;;;;;2.50;83.80;;;;;;5014325;28;19966;-66
2021/12/11 04:26:30;;;;;;;;;;;2.40;84.20;;;;;;5014152;28;19939;-66
2021/12/11 04:28:56;;;;;;;;;;;2.40;84.40;;;;;;5014197;28;19939;-66
2021/12/11 04:31:23;;;;;;;;;;;2.40;84.40;;;;;;5014112;28;19940;-66
2021/12/11 04:33:51;;;;;;;;;;;2.30;84.50;;;;;;5013347;28;20407;-66
2021/12/11 04:36:18;;;;;;;;;;;2.30;84.60;;;;;;5014313;28;19952;-66
2021/12/11 04:38:45;;;;;;;;;;;2.30;84.70;;;;;;5014052;28;19946;-66
2021/12/11 04:41:15;;;;;;;;;;;2.30;84.70;;;;;;5014020;28;19980;-66
2021/12/11 04:43:41;;;;;;;;;;;2.30;84.80;;;;;;5013960;28;20019;-66
2021/12/11 04:46:08;;;;;;;;;;;2.20;85.10;;;;;;5013932;28;19951;-67
2021/12/11 04:54:08;;;;;;;;;;;2.30;85.60;;;;;;5013826;28;19944;-66
2021/12/11 05:04:30;;;;;;;;;;;2.50;84.00;;;;;;5013624;28;19939;-66
2021/12/11 05:12:19;;;;;;;;;;;2.60;83.90;;;;;;5032855;22;20351;-66
2021/12/11 05:14:45;;;;;;;;;;;2.60;84.00;;;;;;5033205;28;19950;-66
2021/12/11 05:17:11;;;;;;;;;;;2.60;83.90;;;;;;5033175;28;20457;-66
2021/12/11 05:19:37;;;;;;;;;;;2.60;83.80;;;;;;5015414;28;20040;-66
2021/12/11 05:22:04;;;;;;;;;;;2.70;83.60;;;;;;5033131;28;19951;-66
2021/12/11 05:24:29;;;;;;;;;;;2.70;83.10;;;;;;5033107;28;19947;-66
2021/12/11 05:26:55;;;;;;;;;;;2.70;82.90;;;;;;5033001;28;19947;-66
2021/12/11 05:29:21;;;;;;;;;;;2.70;82.90;;;;;;5033336;28;20438;-66
2021/12/11 05:31:46;;;;;;;;;;;2.70;82.90;;;;;;5032868;28;20460;-66
2021/12/11 05:34:12;;;;;;;;;;;2.70;83.00;;;;;;5032283;28;20065;-66
2021/12/11 05:36:39;;;;;;;;;;;2.60;83.40;;;;;;5032829;28;19952;-66
2021/12/11 05:39:09;;;;;;;;;;;2.60;83.70;;;;;;5032948;28;20443;-66
2021/12/11 05:41:35;;;;;;;;;;;2.60;83.80;;;;;;5032983;28;19942;-66
2021/12/11 05:44:01;;;;;;;;;;;2.50;83.80;;;;;;5034006;28;20035;-66
2021/12/11 05:46:27;;;;;;;;;;;2.50;83.90;;;;;;5036938;28;19939;-66
2021/12/11 05:48:52;;;;;;;;;;;2.50;84.00;;;;;;5019081;28;19939;-66
2021/12/11 05:51:21;;;;;;;;;;;2.50;84.10;;;;;;5036739;28;19946;-66
2021/12/11 05:53:48;;;;;;;;;;;2.50;84.10;;;;;;5018576;28;19948;-66
2021/12/11 05:56:14;;;;;;;;;;;2.50;84.10;;;;;;5036194;28;19945;-66
2021/12/11 05:58:56;;;;;;;;;;;2.50;84.00;;;;;;5036759;28;19939;-66
2021/12/11 06:01:22;;;;;;;;;;;2.50;83.80;;;;;;5036210;28;19941;-66
2021/12/11 06:03:48;;;;;;;;;;;2.40;84.00;;;;;;5036488;28;19940;-66
2021/12/11 06:06:13;;;;;;;;;;;2.50;84.20;;;;;;5036464;28;19941;-66
2021/12/11 06:08:39;;;;;;;;;;;2.50;84.40;;;;;;5031558;28;19976;-66
2021/12/11 06:11:07;;;;;;;;;;;2.50;84.40;;;;;;5016540;28;20002;-66
2021/12/11 06:13:33;;;;;;;;;;;2.50;84.20;;;;;;5016560;28;19963;-66
2021/12/11 06:15:59;;;;;;;;;;;2.40;84.40;;;;;;5016581;28;19937;-66
2021/12/11 06:18:25;;;;;;;;;;;2.30;84.60;;;;;;5016807;28;19965;-66
2021/12/11 06:20:51;;;;;;;;;;;2.20;84.90;;;;;;5016547;28;20387;-66
2021/12/11 06:23:17;;;;;;;;;;;2.20;85.20;;;;;;5016482;28;19945;-66
2021/12/11 06:25:42;;;;;;;;;;;2.20;85.20;;;;;;5016386;28;19943;-66
2021/12/11 06:28:08;;;;;;;;;;;2.30;84.80;;;;;;5016363;28;20478;-66
2021/12/11 06:30:35;;;;;;;;;;;2.50;84.00;;;;;;5016294;28;19995;-67
2021/12/11 06:33:00;;;;;;;;;;;2.50;83.70;;;;;;5016203;28;20143;-66
2021/12/11 06:35:26;;;;;;;;;;;2.50;84.00;;;;;;5016266;28;20249;-66
2021/12/11 06:37:51;;;;;;;;;;;2.40;84.10;;;;;;5016169;28;19938;-66
2021/12/11 06:40:18;;;;;;;;;;;2.40;83.80;;;;;;5016166;28;20386;-66
2021/12/11 06:42:43;;;;;;;;;;;2.50;84.00;;;;;;5016115;28;19946;-66
2021/12/11 06:45:09;;;;;;;;;;;2.40;84.40;;;;;;5016073;28;19955;-66
2021/12/11 06:47:34;;;;;;;;;;;2.30;85.10;;;;;;5015978;28;19948;-66
2021/12/11 06:50:02;;;;;;;;;;;2.30;85.40;;;;;;5015970;28;19951;-67
2021/12/11 06:52:28;;;;;;;;;;;2.30;85.50;;;;;;5015932;28;19969;-67
2021/12/11 06:54:53;;;;;;;;;;;2.30;85.50;;;;;;5015920;28;20344;-67
2021/12/11 06:57:19;;;;;;;;;;;2.40;85.30;;;;;;5015030;28;20411;-67
2021/12/11 06:59:46;;;;;;;;;;;2.40;85.10;;;;;;5015774;28;19937;-67
2021/12/11 07:02:11;;;;;;;;;;;2.50;84.50;;;;;;4998184;28;19969;-66
2021/12/11 07:04:37;;;;;;;;;;;2.60;84.10;;;;;;5015505;28;20392;-66
2021/12/11 07:07:03;;;;;;;;;;;2.70;83.90;;;;;;5015636;28;20044;-66
2021/12/11 07:09:29;;;;;;;;;;;2.80;83.30;;;;;;5015475;28;19962;-66
2021/12/11 07:11:55;;;;;;;;;;;2.90;82.90;;;;;;5015253;28;20401;-66
2021/12/11 07:14:22;;;;;;;;;;;3.00;82.40;;;;;;5015439;28;20398;-66
2021/12/11 07:16:48;;;;;;;;;;;3.00;81.90;;;;;;5015248;28;19936;-66
2021/12/11 07:19:14;;;;;;;;;;;3.00;81.10;;;;;;5015099;28;19945;-67
2021/12/11 07:21:40;;;;;;;;;;;3.00;81.80;;;;;;5015687;28;19950;-67
2021/12/11 07:24:07;;;;;;;;;;;2.90;82.00;;;;;;5015425;28;19937;-67
2021/12/11 07:26:34;;;;;;;;;;;2.90;82.00;;;;;;5015194;28;20027;-67
2021/12/11 07:29:05;;;;;;;;;;;2.80;81.80;;;;;;5015361;28;19995;-66
2021/12/11 07:31:31;;;;;;;;;;;2.80;82.00;;;;;;5014880;28;19944;-66
2021/12/11 07:33:58;;;;;;;;;;;2.80;82.40;;;;;;5015024;28;19960;-66
2021/12/11 07:36:23;;;;;;;;;;;2.80;82.60;;;;;;5015269;28;19977;-65
2021/12/11 07:38:49;;;;;;;;;;;2.90;82.60;;;;;;5014954;28;20059;-65
2021/12/11 07:41:16;;;;;;;;;;;3.00;82.90;;;;;;5014804;28;19949;-65
2021/12/11 07:43:43;;;;;;;;;;;3.10;83.00;;;;;;5014774;28;20000;-65
2021/12/11 07:46:13;;;;;;;;;;;3.00;82.70;;;;;;5014468;28;20414;-65
2021/12/11 07:48:38;;;;;;;;;;;2.90;83.60;;;;;;5014589;28;19959;-65
2021/12/11 07:51:04;;;;;;;;;;;2.90;83.80;;;;;;5014327;28;19937;-65
2021/12/11 07:53:30;;;;;;;;;;;2.90;82.60;;;;;;5014643;28;19968;-65
2021/12/11 07:55:56;;;;;;;;;;;2.90;82.50;;;;;;5014717;28;19959;-65
2021/12/11 07:58:21;;;;;;;;;;;2.90;82.50;;;;;;5014672;28;20034;-65
2021/12/11 08:00:47;;;;;;;;;;;2.80;83.50;;;;;;5014697;28;20030;-65
2021/12/11 08:03:14;;;;;;;;;;;2.90;83.70;;;;;;5014876;28;19999;-66
2021/12/11 08:05:41;;;;;;;;;;;2.70;85.20;;;;;;5014576;28;20439;-66
2021/12/11 08:08:09;;;;;;;;;;;2.70;85.50;;;;;;5014430;28;19945;-66
2021/12/11 08:10:36;;;;;;;;;;;2.70;85.80;;;;;;5014350;28;19976;-66
2021/12/11 08:13:02;;;;;;;;;;;2.70;86.50;;;;;;5014327;28;20071;-66
2021/12/11 08:15:28;;;;;;;;;;;2.70;86.60;;;;;;4996598;28;20399;-66
2021/12/11 08:17:54;;;;;;;;;;;2.70;86.70;;;;;;5014328;28;19990;-66
2021/12/11 08:20:22;;;;;;;;;;;2.70;86.90;;;;;;5014299;28;19940;-66
2021/12/11 08:22:48;;;;;;;;;;;2.80;86.80;;;;;;5014238;28;19992;-66
2021/12/11 08:25:13;;;;;;;;;;;2.80;86.70;;;;;;5014179;28;19942;-66
2021/12/11 08:27:39;;;;;;;;;;;2.80;86.70;;;;;;5014107;28;20330;-66
2021/12/11 08:30:06;;;;;;;;;;;2.80;87.20;;;;;;5014183;28;20324;-66
2021/12/11 08:32:32;;;;;;;;;;;2.90;87.70;;;;;;5013994;28;20446;-66
2021/12/11 08:34:57;;;;;;;;;;;2.90;87.70;;;;;;5014010;28;20001;-66
2021/12/11 08:37:24;;;;;;;;;;;3.00;88.00;;;;;;5013919;28;20326;-66
2021/12/11 08:39:50;;;;;;;;;;;3.10;87.90;;;;;;5013959;28;19945;-66
2021/12/11 08:42:18;;;;;;;;;;;3.10;87.90;;;;;;5013924;28;19976;-66
2021/12/11 08:44:50;;;;;;;;;;;3.10;88.30;;;;;;5013860;28;19938;-65
2021/12/11 08:47:17;;;;;;;;;;;3.10;88.40;;;;;;5013845;28;19944;-65
2021/12/11 08:49:43;;;;;;;;;;;3.20;88.50;;;;;;4996122;28;20317;-65
2021/12/11 08:52:12;;;;;;;;;;;3.20;88.80;;;;;;5013727;28;19972;-65
2021/12/11 08:54:38;;;;;;;;;;;3.20;89.00;;;;;;5013761;28;19945;-65
2021/12/11 08:57:06;;;;;;;;;;;3.30;88.90;;;;;;5013669;28;19941;-66
2021/12/11 08:59:32;;;;;;;;;;;3.40;88.20;;;;;;5013570;28;19944;-66
2021/12/11 09:02:07;;;;;;;;;;;3.40;87.10;;;;;;5013545;28;19935;-66
2021/12/11 09:04:32;;;;;;;;;;;3.50;88.20;;;;;;5013161;28;19947;-66
2021/12/11 09:07:04;;;;;;;;;;;3.60;88.90;;;;;;5013499;28;19992;-66
2021/12/11 09:09:29;;;;;;;;;;;3.70;89.00;;;;;;5013292;28;20426;-65
2021/12/11 09:11:58;;;;;;;;;;;3.70;89.10;;;;;;5013202;28;20101;-65
2021/12/11 09:14:49;;;;;;;;;;;3.80;89.10;;;;;;5013317;28;19951;-65
2021/12/11 09:17:30;;;;;;;;;;;3.90;89.50;;;;;;5011205;28;20319;-65
2021/12/11 09:20:07;;;;;;;;;;;4.00;87.70;;;;;;5012962;28;19943;-65
2021/12/11 09:22:34;;;;;;;;;;;4.10;85.20;;;;;;5013306;28;19944;-65
2021/12/11 09:25:09;;;;;;;;;;;4.30;83.50;;;;;;5013572;28;20051;-65
2021/12/11 09:27:47;;;;;;;;;;;4.40;82.20;;;;;;5013253;28;19999;-65
2021/12/11 09:30:19;;;;;;;;;;;4.60;80.80;;;;;;5013317;28;20043;-65
2021/12/11 09:32:51;;;;;;;;;;;4.70;79.80;;;;;;5013229;28;19966;-66
2021/12/11 09:35:34;;;;;;;;;;;4.90;80.00;;;;;;5013285;28;19952;-65
2021/12/11 09:38:06;;;;;;;;;;;5.00;79.50;;;;;;5013206;28;19944;-66
2021/12/11 09:40:34;;;;;;;;;;;5.70;80.60;;;;;;5013203;28;19940;-66
2021/12/11 09:43:01;;;;;;;;;;;6.20;77.40;;;;;;5013195;28;20423;-66
2021/12/11 09:45:28;;;;;;;;;;;6.40;76.40;;;;;;5013248;28;20008;-66
2021/12/11 09:47:59;;;;;;;;;;;6.50;73.10;;;;;;5013113;28;19936;-66
2021/12/11 09:50:42;;;;;;;;;;;6.70;74.40;;;;;;5013191;28;19944;-66
2021/12/11 09:53:07;;;;;;;;;;;6.90;73.20;;;;;;5013111;28;19963;-65
2021/12/11 09:55:37;;;;;;;;;;;7.00;72.20;;;;;;5013046;28;19945;-66
2021/12/11 09:58:05;;;;;;;;;;;7.20;71.40;;;;;;5013221;28;19946;-65
2021/12/11 10:00:38;;;;;;;;;;;7.30;69.90;;;;;;5012840;28;20396;-65
2021/12/11 10:03:05;;;;;;;;;;;7.30;69.70;;;;;;5012858;28;19988;-66
2021/12/11 10:05:36;;;;;;;;;;;7.30;69.80;;;;;;4995270;28;20093;-66
2021/12/11 10:10:51;;;;;;;;;;;6.90;71.00;;;;;;5012928;28;19990;-66
2021/12/11 10:13:17;;;;;;;;;;;6.80;72.30;;;;;;5012893;28;19964;-66
2021/12/11 10:15:42;;;;;;;;;;;6.70;72.80;;;;;;5012910;28;19949;-66
2021/12/11 10:18:16;;;;;;;;;;;6.70;72.80;;;;;;5012866;28;20328;-66
2021/12/11 10:20:48;;;;;;;;;;;6.80;72.40;;;;;;5013039;28;19955;-66
2021/12/11 10:23:16;;;;;;;;;;;6.90;72.40;;;;;;5012795;28;19957;-66
2021/12/11 10:25:43;;;;;;;;;;;6.90;72.10;;;;;;5012677;28;20023;-66
2021/12/11 10:28:10;;;;;;;;;;;6.90;72.00;;;;;;5012740;28;20482;-66
2021/12/11 10:30:37;;;;;;;;;;;7.00;72.20;;;;;;5012825;28;19945;-66
2021/12/11 10:33:04;;;;;;;;;;;7.20;72.70;;;;;;5016191;28;20459;-66
2021/12/11 10:35:33;;;;;;;;;;;7.50;70.80;;;;;;5016314;28;19994;-66
2021/12/11 10:38:01;;;;;;;;;;;7.70;71.20;;;;;;5016082;28;20413;-66
2021/12/11 10:40:31;;;;;;;;;;;7.80;71.50;;;;;;5016201;28;19989;-66
2021/12/11 10:43:00;;;;;;;;;;;8.00;70.60;;;;;;5016134;28;19945;-66
2021/12/11 10:45:26;;;;;;;;;;;8.20;69.10;;;;;;5016109;28;19937;-66
2021/12/11 10:47:55;;;;;;;;;;;8.00;67.50;;;;;;5016060;28;19982;-66
2021/12/11 10:50:24;;;;;;;;;;;8.00;67.40;;;;;;5015988;28;20004;-66
2021/12/11 10:52:49;;;;;;;;;;;8.20;66.50;;;;;;5015894;28;19963;-66
2021/12/11 10:55:17;;;;;;;;;;;8.20;65.80;;;;;;4998339;28;19949;-66
2021/12/11 10:57:43;;;;;;;;;;;8.40;65.60;;;;;;5015834;28;19955;-66
2021/12/11 11:00:16;;;;;;;;;;;8.50;66.80;;;;;;5015810;28;19943;-66
2021/12/11 11:02:42;;;;;;;;;;;8.70;67.60;;;;;;5015665;28;19937;-66
2021/12/11 11:05:11;;;;;;;;;;;8.80;67.60;;;;;;5015323;28;19953;-66
2021/12/11 11:07:37;;;;;;;;;;;9.00;66.70;;;;;;5015210;28;19943;-66
2021/12/11 11:10:05;;;;;;;;;;;9.20;62.80;;;;;;5015212;28;19980;-66
2021/12/11 11:12:31;;;;;;;;;;;9.40;62.30;;;;;;5015374;28;19965;-66
2021/12/11 11:14:57;;;;;;;;;;;9.90;59.80;;;;;;4997925;28;19951;-66
2021/12/11 11:17:25;;;;;;;;;;;9.90;59.10;;;;;;5015467;28;19937;-66
2021/12/11 11:19:51;;;;;;;;;;;10.10;61.40;;;;;;4997586;28;20430;-66
2021/12/11 11:22:19;;;;;;;;;;;10.40;62.10;;;;;;5015391;28;19985;-66
2021/12/11 11:24:47;;;;;;;;;;;10.60;60.20;;;;;;5015376;28;19945;-66
2021/12/11 11:27:13;;;;;;;;;;;10.60;59.40;;;;;;4997580;28;19956;-66
2021/12/11 11:29:40;;;;;;;;;;;10.60;60.00;;;;;;5015286;28;19938;-66
2021/12/11 11:32:08;;;;;;;;;;;10.70;61.20;;;;;;5015131;28;19987;-66
2021/12/11 11:34:40;;;;;;;;;;;10.70;59.90;;;;;;5015234;28;19942;-66
2021/12/11 11:37:06;;;;;;;;;;;10.70;58.20;;;;;;5015358;28;19949;-66
2021/12/11 11:39:32;;;;;;;;;;;11.10;60.80;;;;;;5015139;28;19945;-66
2021/12/11 11:41:59;;;;;;;;;;;11.60;59.00;;;;;;5014773;28;20330;-66
2021/12/11 11:44:27;;;;;;;;;;;12.30;56.80;;;;;;5015000;28;20038;-66
2021/12/11 11:46:54;;;;;;;;;;;12.90;54.40;;;;;;5012887;28;19998;-66
2021/12/11 11:49:20;;;;;;;;;;;13.60;50.60;;;;;;5016061;28;19949;-66
2021/12/11 11:51:49;;;;;;;;;;;14.30;48.40;;;;;;5013810;28;20008;-66
2021/12/11 11:54:15;;;;;;;;;;;14.90;44.90;;;;;;5014647;28;20385;-66
2021/12/11 11:56:43;;;;;;;;;;;15.10;47.40;;;;;;5014773;28;19962;-66
2021/12/11 11:59:10;;;;;;;;;;;15.40;44.70;;;;;;5014795;28;19944;-66
2021/12/11 12:01:38;;;;;;;;;;;16.00;40.00;;;;;;5014722;28;19943;-66
2021/12/11 12:04:05;;;;;;;;;;;16.40;39.30;;;;;;5014640;28;19943;-66
2021/12/11 12:06:33;;;;;;;;;;;16.50;39.40;;;;;;5014614;28;19945;-66
2021/12/11 12:09:00;;;;;;;;;;;16.30;38.50;;;;;;5014479;28;19964;-66
2021/12/11 12:11:31;;;;;;;;;;;16.40;39.30;;;;;;5014383;28;20003;-66
2021/12/11 12:13:57;;;;;;;;;;;16.50;37.40;;;;;;5014472;28;20432;-66
2021/12/11 12:16:24;;;;;;;;;;;16.60;38.50;;;;;;4980575;28;20363;-66
2021/12/11 12:18:49;;;;;;;;;;;16.40;38.10;;;;;;5014413;28;20057;-66
2021/12/11 12:21:16;;;;;;;;;;;16.40;37.40;;;;;;5014074;28;20401;-66
2021/12/11 12:23:41;;;;;;;;;;;16.40;38.00;;;;;;5014205;28;20011;-66
2021/12/11 12:26:11;;;;;;;;;;;16.90;36.60;;;;;;5014140;28;20410;-66
2021/12/11 12:28:37;;;;;;;;;;;17.70;36.00;;;;;;5013850;28;19951;-66
2021/12/11 12:31:04;;;;;;;;;;;18.00;34.40;;;;;;5014108;28;19943;-66
2021/12/11 12:33:30;;;;;;;;;;;18.30;34.00;;;;;;4996371;28;20099;-66
2021/12/11 12:35:56;;;;;;;;;;;19.10;33.60;;;;;;5014073;28;20334;-66
2021/12/11 12:38:23;;;;;;;;;;;19.20;32.90;;;;;;4996164;28;20414;-66
2021/12/11 12:40:55;;;;;;;;;;;18.80;33.50;;;;;;5013946;28;19948;-67
2021/12/11 12:43:53;;;;;;;;;;;18.90;32.70;;;;;;5013966;28;19990;-66
2021/12/11 12:46:08;;;;;;;;;;;18.60;33.60;;;;;;5013670;28;20125;-67
2021/12/11 12:48:33;;;;;;;;;;;18.00;34.80;;;;;;5014171;28;20481;-66
2021/12/11 12:51:01;;;;;;;;;;;17.30;35.90;;;;;;5013828;28;19988;-66
2021/12/11 12:53:33;;;;;;;;;;;16.80;37.40;;;;;;5013215;28;19964;-66
2021/12/11 12:56:02;;;;;;;;;;;16.60;37.00;;;;;;5013684;28;20078;-66
2021/12/11 12:58:42;;;;;;;;;;;16.40;37.90;;;;;;5013770;28;20034;-66
2021/12/11 13:01:14;;;;;;;;;;;16.10;38.50;;;;;;5013705;28;19950;-66
2021/12/11 13:03:41;;;;;;;;;;;16.10;38.50;;;;;;5013653;28;20407;-66
2021/12/11 13:06:11;;;;;;;;;;;16.50;36.80;;;;;;4996297;28;19943;-66
2021/12/11 13:08:42;;;;;;;;;;;17.00;35.50;;;;;;5013435;28;20427;-66
2021/12/11 13:11:11;;;;;;;;;;;17.30;35.70;;;;;;5032487;23;19976;-66
2021/12/11 13:13:37;;;;;;;;;;;17.40;35.40;;;;;;5033123;28;19961;-66
2021/12/11 13:16:10;;;;;;;;;;;17.90;35.20;;;;;;5032704;28;20450;-67
2021/12/11 13:18:37;;;;;;;;;;;17.80;35.10;;;;;;5033165;28;19942;-66
2021/12/11 13:21:08;;;;;;;;;;;17.90;34.80;;;;;;5033130;28;20460;-66
2021/12/11 13:23:36;;;;;;;;;;;17.20;35.30;;;;;;5033111;28;19939;-66
2021/12/11 13:26:03;;;;;;;;;;;16.70;36.10;;;;;;5032971;28;19975;-66
2021/12/11 13:28:30;;;;;;;;;;;16.30;37.30;;;;;;5032931;28;19984;-66
2021/12/11 13:30:58;;;;;;;;;;;16.50;36.70;;;;;;5033067;28;19942;-66
2021/12/11 13:33:25;;;;;;;;;;;16.30;35.90;;;;;;5032942;28;19971;-67
2021/12/11 13:35:52;;;;;;;;;;;16.10;37.30;;;;;;5032947;28;19961;-67
2021/12/11 13:38:21;;;;;;;;;;;16.40;37.10;;;;;;5033047;28;19954;-66
2021/12/11 13:40:52;;;;;;;;;;;16.30;36.00;;;;;;5032962;28;19945;-66
2021/12/11 13:43:18;;;;;;;;;;;16.30;36.70;;;;;;5032984;28;19943;-66
2021/12/11 13:45:46;;;;;;;;;;;16.90;36.10;;;;;;5032955;28;20086;-66
2021/12/11 13:48:13;;;;;;;;;;;17.00;34.90;;;;;;5032902;28;19991;-66
2021/12/11 13:50:42;;;;;;;;;;;17.10;34.80;;;;;;5032915;28;19940;-66
2021/12/11 13:53:07;;;;;;;;;;;16.80;35.10;;;;;;5032792;28;20491;-66
2021/12/11 13:55:33;;;;;;;;;;;16.40;37.60;;;;;;5032815;28;19967;-66
2021/12/11 13:57:59;;;;;;;;;;;16.10;36.40;;;;;;5032814;28;20417;-66
2021/12/11 14:00:27;;;;;;;;;;;15.80;37.60;;;;;;5032818;28;19946;-66
2021/12/11 14:02:54;;;;;;;;;;;15.60;38.80;;;;;;5032713;28;19949;-66
2021/12/11 14:05:20;;;;;;;;;;;15.30;38.80;;;;;;5033929;28;19944;-66
2021/12/11 14:07:45;;;;;;;;;;;15.30;39.40;;;;;;5036612;28;19941;-66
2021/12/11 14:10:27;;;;;;;;;;;15.20;39.20;;;;;;5036336;28;19984;-66
2021/12/11 14:12:52;;;;;;;;;;;15.30;39.60;;;;;;5036413;28;19966;-66
2021/12/11 14:15:18;;;;;;;;;;;15.10;39.50;;;;;;5036502;28;19941;-66
2021/12/11 14:17:44;;;;;;;;;;;14.90;39.80;;;;;;5036434;28;19944;-66
2021/12/11 14:20:10;;;;;;;;;;;15.20;39.20;;;;;;5036418;28;19937;-66
2021/12/11 14:22:37;;;;;;;;;;;15.40;39.10;;;;;;5036255;28;19943;-66
2021/12/11 14:25:04;;;;;;;;;;;15.70;38.50;;;;;;5034954;28;19987;-66
2021/12/11 14:27:29;;;;;;;;;;;15.60;38.40;;;;;;5034204;28;20055;-66
2021/12/11 14:29:55;;;;;;;;;;;15.40;38.60;;;;;;5035707;28;20045;-66
2021/12/11 14:32:22;;;;;;;;;;;15.40;37.90;;;;;;5036144;28;19970;-66
2021/12/11 14:34:48;;;;;;;;;;;15.40;39.90;;;;;;5036420;28;19940;-66
2021/12/11 14:37:14;;;;;;;;;;;15.30;40.00;;;;;;5036039;28;19956;-66
2021/12/11 14:39:46;;;;;;;;;;;15.20;39.90;;;;;;5036075;28;19938;-66
2021/12/11 14:42:12;;;;;;;;;;;14.90;40.40;;;;;;5035975;28;19946;-66
2021/12/11 14:44:38;;;;;;;;;;;14.70;40.20;;;;;;5035966;28;20413;-66
2021/12/11 14:47:06;;;;;;;;;;;14.60;40.90;;;;;;5035908;28;19945;-66
2021/12/11 14:49:34;;;;;;;;;;;14.50;41.80;;;;;;5035819;28;20033;-66
2021/12/11 14:51:59;;;;;;;;;;;14.20;41.70;;;;;;5035725;28;20001;-66
2021/12/11 14:54:26;;;;;;;;;;;14.10;42.50;;;;;;5035645;28;19998;-66